createdAt,value
2022-12-06T00:00:29.854Z,98593.75
2022-12-06T00:03:31.527Z,98594.63
2022-12-06T00:06:34.183Z,98595.50
2022-12-06T00:09:35.920Z,98597.25
2022-12-06T00:12:37.562Z,98593.72
2022-12-06T00:15:40.603Z,98588.50
2022-12-06T00:18:43.118Z,98586.75
2022-12-06T00:21:45.326Z,98585.03
2022-12-06T00:24:46.927Z,98585.00
2022-12-06T00:27:48.509Z,98578.88
2022-12-06T00:30:57.202Z,98578.91
2022-12-06T00:33:59.300Z,98577.16
2022-12-06T00:37:01.152Z,98579.78
2022-12-06T00:40:03.045Z,98573.66
2022-12-06T00:43:04.790Z,98571.94
2022-12-06T00:46:08.876Z,98571.06
2022-12-06T00:49:10.634Z,98575.44
2022-12-06T00:52:12.280Z,98569.31
2022-12-06T00:55:14.270Z,98564.94
2022-12-06T00:58:16.667Z,98569.31
2022-12-06T01:01:21.713Z,98567.56
2022-12-06T01:04:23.539Z,98571.06
2022-12-06T01:07:25.630Z,98569.31
2022-12-06T01:10:27.421Z,98570.16
2022-12-06T01:13:29.204Z,98570.16
2022-12-06T01:16:32.541Z,98573.69
2022-12-06T01:19:34.676Z,98574.56
2022-12-06T01:22:37.177Z,98573.69
2022-12-06T01:25:38.745Z,98567.53
2022-12-06T01:28:40.373Z,98572.78
2022-12-06T01:31:43.297Z,98564.06
2022-12-06T01:34:45.331Z,98565.81
2022-12-06T01:37:46.850Z,98553.59
2022-12-06T01:40:48.738Z,98558.81
2022-12-06T01:43:50.483Z,98556.19
2022-12-06T01:46:54.519Z,98571.94
2022-12-06T01:49:58.463Z,98562.31
2022-12-06T01:53:02.352Z,98557.94
2022-12-06T01:56:04.211Z,98550.09
2022-12-06T01:59:07.293Z,98555.34
2022-12-06T02:02:10.738Z,98553.56
2022-12-06T02:05:13.287Z,98543.06
2022-12-06T02:08:15.277Z,98550.94
2022-12-06T02:11:16.945Z,98547.41
2022-12-06T02:14:20.828Z,98547.47
2022-12-06T02:17:30.054Z,98538.69
2022-12-06T02:20:33.313Z,98542.22
2022-12-06T02:23:43.135Z,98547.47
2022-12-06T02:26:47.456Z,98543.06
2022-12-06T02:30:08.092Z,98536.09
2022-12-06T02:33:15.709Z,98528.25
2022-12-06T02:36:21.622Z,98522.97
2022-12-06T02:39:28.104Z,98526.50
2022-12-06T02:42:33.906Z,98526.50
2022-12-06T02:45:39.091Z,98522.97
2022-12-06T02:48:43.003Z,98525.63
2022-12-06T02:51:46.165Z,98523.00
2022-12-06T02:54:48.591Z,98522.16
2022-12-06T02:57:51.383Z,98520.44
2022-12-06T03:00:55.837Z,98522.16
2022-12-06T03:04:06.952Z,98524.75
2022-12-06T03:07:12.536Z,98518.66
2022-12-06T03:10:25.299Z,98511.69
2022-12-06T03:13:31.925Z,98516.91
2022-12-06T03:16:40.802Z,98522.16
2022-12-06T03:19:45.504Z,98516.91
2022-12-06T03:22:50.244Z,98518.66
2022-12-06T03:25:52.938Z,98514.28
2022-12-06T03:28:56.741Z,98516.03
2022-12-06T03:32:00.720Z,98518.66
2022-12-06T03:35:06.487Z,98524.78
2022-12-06T03:38:10.158Z,98521.28
2022-12-06T03:41:13.544Z,98516.03
2022-12-06T03:44:15.394Z,98509.94
2022-12-06T03:47:20.994Z,98515.16
2022-12-06T03:50:28.306Z,98511.66
2022-12-06T03:53:30.195Z,98509.03
2022-12-06T03:56:32.459Z,98514.28
2022-12-06T03:59:34.214Z,98505.56
2022-12-06T04:02:35.860Z,98508.19
2022-12-06T04:05:38.865Z,98513.41
2022-12-06T04:08:40.595Z,98509.06
2022-12-06T04:11:42.170Z,98503.78
2022-12-06T04:14:44.014Z,98497.72
2022-12-06T04:18:05.270Z,98504.72
2022-12-06T04:21:26.619Z,98506.47
2022-12-06T04:24:28.234Z,98503.84
2022-12-06T04:27:59.407Z,98500.31
2022-12-06T04:31:22.377Z,98495.97
2022-12-06T04:34:43.240Z,98494.19
2022-12-06T04:38:04.738Z,98491.59
2022-12-06T04:41:06.396Z,98495.97
2022-12-06T04:44:07.950Z,98481.97
2022-12-06T04:47:09.830Z,98487.19
2022-12-06T04:50:11.467Z,98494.19
2022-12-06T04:53:15.291Z,98486.31
2022-12-06T04:56:17.292Z,98489.81
2022-12-06T04:59:19.025Z,98489.81
2022-12-06T05:02:21.183Z,98490.72
2022-12-06T05:05:22.760Z,98494.19
2022-12-06T05:08:29.021Z,98484.59
2022-12-06T05:11:31.269Z,98485.47
2022-12-06T05:14:32.999Z,98487.19
2022-12-06T05:17:34.597Z,98488.94
2022-12-06T05:20:38.663Z,98482.78
2022-12-06T05:23:41.845Z,98482.81
2022-12-06T05:26:43.529Z,98491.56
2022-12-06T05:29:45.163Z,98489.78
2022-12-06T05:32:46.956Z,98482.78
2022-12-06T05:35:48.718Z,98483.69
2022-12-06T05:38:52.073Z,98479.31
2022-12-06T05:41:53.697Z,98477.53
2022-12-06T05:44:55.355Z,98470.56
2022-12-06T05:47:56.981Z,98478.44
2022-12-06T05:50:58.659Z,98469.69
2022-12-06T05:54:05.173Z,98467.03
2022-12-06T05:57:06.829Z,98469.69
2022-12-06T06:00:09.429Z,98466.19
2022-12-06T06:03:11.252Z,98460.94
2022-12-06T06:06:12.980Z,98464.44
2022-12-06T06:09:15.940Z,98462.66
2022-12-06T06:12:17.680Z,98461.78
2022-12-06T06:15:19.743Z,98456.56
2022-12-06T06:18:21.545Z,98461.78
2022-12-06T06:21:23.390Z,98467.00
2022-12-06T06:24:26.348Z,98460.88
2022-12-06T06:27:28.334Z,98468.75
2022-12-06T06:30:30.416Z,98470.50
2022-12-06T06:33:32.866Z,98470.47
2022-12-06T06:36:34.474Z,98467.81
2022-12-06T06:39:37.828Z,98471.34
2022-12-06T06:42:39.592Z,98479.22
2022-12-06T06:45:41.179Z,98473.97
2022-12-06T06:48:42.845Z,98481.84
2022-12-06T06:51:44.669Z,98483.56
2022-12-06T06:54:47.669Z,98473.06
2022-12-06T06:57:49.317Z,98484.41
2022-12-06T07:00:52.672Z,98480.94
2022-12-06T07:03:54.600Z,98479.16
2022-12-06T07:06:56.310Z,98473.94
2022-12-06T07:09:59.655Z,98482.66
2022-12-06T07:13:01.550Z,98473.03
2022-12-06T07:16:03.648Z,98485.25
2022-12-06T07:19:09.045Z,98487.06
2022-12-06T07:22:11.059Z,98484.47
2022-12-06T07:25:14.323Z,98486.16
2022-12-06T07:28:15.935Z,98494.06
2022-12-06T07:31:18.493Z,98492.28
2022-12-06T07:34:20.370Z,98491.41
2022-12-06T07:37:21.967Z,98494.00
2022-12-06T07:40:48.162Z,98501.84
2022-12-06T07:44:05.284Z,98500.97
2022-12-06T07:47:07.081Z,98498.34
2022-12-06T07:50:15.977Z,98503.59
2022-12-06T07:53:19.498Z,98506.22
2022-12-06T07:56:22.835Z,98507.09
2022-12-06T07:59:25.216Z,98502.72
2022-12-06T08:02:27.424Z,98507.06
2022-12-06T08:05:29.093Z,98507.06
2022-12-06T08:08:31.696Z,98506.19
2022-12-06T08:11:34.855Z,98510.59
2022-12-06T08:14:36.869Z,98512.28
2022-12-06T08:17:38.692Z,98513.13
2022-12-06T08:20:40.589Z,98516.63
2022-12-06T08:23:42.192Z,98517.53
2022-12-06T08:26:48.661Z,98525.41
2022-12-06T08:29:50.440Z,98526.25
2022-12-06T08:32:52.111Z,98526.25
2022-12-06T08:35:53.763Z,98532.38
2022-12-06T08:38:56.089Z,98535.00
2022-12-06T08:41:59.257Z,98534.13
2022-12-06T08:45:00.995Z,98531.50
2022-12-06T08:48:02.979Z,98534.94
2022-12-06T08:51:04.936Z,98534.97
2022-12-06T08:54:07.493Z,98529.75
2022-12-06T08:57:10.689Z,98527.19
2022-12-06T09:00:13.194Z,98528.03
2022-12-06T09:03:14.800Z,98535.88
2022-12-06T09:06:16.632Z,98535.84
2022-12-06T09:09:18.646Z,98533.19
2022-12-06T09:12:21.727Z,98541.03
2022-12-06T09:15:23.359Z,98537.59
2022-12-06T09:18:25.012Z,98544.56
2022-12-06T09:21:30.609Z,98544.53
2022-12-06T09:24:32.488Z,98542.78
2022-12-06T09:27:35.571Z,98537.53
2022-12-06T09:30:37.237Z,98548.03
2022-12-06T09:33:38.923Z,98534.81
2022-12-06T09:36:44.050Z,98539.19
2022-12-06T09:39:47.797Z,98531.28
2022-12-06T09:43:04.037Z,98534.75
2022-12-06T09:46:11.377Z,98532.97
2022-12-06T09:49:29.283Z,98538.25
2022-12-06T09:52:37.452Z,98530.31
2022-12-06T09:55:44.218Z,98531.19
2022-12-06T09:58:53.392Z,98525.03
2022-12-06T10:02:02.775Z,98520.63
2022-12-06T10:05:15.548Z,98521.50
2022-12-06T10:08:22.913Z,98530.25
2022-12-06T10:11:31.505Z,98525.03
2022-12-06T10:14:40.081Z,98521.53
2022-12-06T10:17:52.422Z,98520.69
2022-12-06T10:20:59.315Z,98515.47
2022-12-06T10:24:07.872Z,98509.31
2022-12-06T10:27:10.944Z,98506.69
2022-12-06T10:30:14.742Z,98497.84
2022-12-06T10:33:20.319Z,98495.22
2022-12-06T10:36:27.702Z,98486.47
2022-12-06T10:39:33.012Z,98483.00
2022-12-06T10:42:37.277Z,98486.50
2022-12-06T10:46:05.637Z,98482.97
2022-12-06T10:49:13.592Z,98483.84
2022-12-06T10:52:20.093Z,98480.28
2022-12-06T10:55:24.692Z,98482.94
2022-12-06T10:58:30.824Z,98477.69
2022-12-06T11:01:36.814Z,98482.88
2022-12-06T11:04:39.192Z,98484.63
2022-12-06T11:07:43.683Z,98492.50
2022-12-06T11:10:46.553Z,98486.38
2022-12-06T11:13:51.028Z,98488.09
2022-12-06T11:17:05.261Z,98480.19
2022-12-06T11:20:13.465Z,98476.63
2022-12-06T11:23:19.384Z,98485.41
2022-12-06T11:26:28.136Z,98481.88
2022-12-06T11:29:30.927Z,98487.91
2022-12-06T11:32:34.048Z,98486.22
2022-12-06T11:35:36.805Z,98482.75
2022-12-06T11:38:39.770Z,98481.88
2022-12-06T11:41:43.131Z,98474.75
2022-12-06T11:44:49.928Z,98476.47
2022-12-06T11:47:54.895Z,98474.72
2022-12-06T11:50:56.784Z,98477.34
2022-12-06T11:54:02.017Z,98479.13
2022-12-06T11:57:15.770Z,98483.47
2022-12-06T12:00:22.503Z,98483.50
2022-12-06T12:03:28.880Z,98480.91
2022-12-06T12:06:30.715Z,98475.56
2022-12-06T12:09:33.742Z,98478.16
2022-12-06T12:12:56.592Z,98480.75
2022-12-06T12:16:00.774Z,98480.72
2022-12-06T12:19:05.865Z,98482.53
2022-12-06T12:22:14.945Z,98482.56
2022-12-06T12:25:26.316Z,98480.78
2022-12-06T12:28:29.913Z,98474.63
2022-12-06T12:31:31.912Z,98477.22
2022-12-06T12:34:40.150Z,98471.06
2022-12-06T12:37:44.412Z,98473.69
2022-12-06T12:40:47.527Z,98468.38
2022-12-06T12:44:13.770Z,98464.88
2022-12-06T12:47:19.639Z,98463.97
2022-12-06T12:50:24.023Z,98462.22
2022-12-06T12:53:29.521Z,98463.94
2022-12-06T12:56:33.194Z,98462.13
2022-12-06T12:59:37.821Z,98461.22
2022-12-06T13:02:40.366Z,98453.31
2022-12-06T13:05:47.202Z,98457.66
2022-12-06T13:08:49.720Z,98451.44
2022-12-06T13:11:53.836Z,98452.31
2022-12-06T13:14:58.555Z,98451.44
2022-12-06T13:18:03.503Z,98450.50
2022-12-06T13:21:11.599Z,98448.75
2022-12-06T13:24:18.240Z,98452.22
2022-12-06T13:27:22.555Z,98452.28
2022-12-06T13:30:26.438Z,98452.19
2022-12-06T13:33:30.130Z,98446.03
2022-12-06T13:36:34.026Z,98440.78
2022-12-06T13:39:37.247Z,98444.25
2022-12-06T13:42:44.034Z,98443.47
2022-12-06T13:45:49.048Z,98444.34
2022-12-06T13:48:51.915Z,98451.34
2022-12-06T13:51:55.010Z,98448.75
2022-12-06T13:54:56.806Z,98451.44
2022-12-06T13:58:21.557Z,98450.50
2022-12-06T14:01:40.356Z,98446.16
2022-12-06T14:04:42.620Z,98447.00
2022-12-06T14:07:45.803Z,98448.75
2022-12-06T14:10:47.592Z,98453.94
2022-12-06T14:13:59.999Z,98456.53
2022-12-06T14:17:03.881Z,98450.41
2022-12-06T14:20:19.302Z,98443.38
2022-12-06T14:23:24.727Z,98449.53
2022-12-06T14:26:27.315Z,98446.03
2022-12-06T14:29:31.139Z,98448.63
2022-12-06T14:32:36.983Z,98446.03
2022-12-06T14:35:40.082Z,98446.91
2022-12-06T14:38:43.111Z,98446.91
2022-12-06T14:42:10.029Z,98437.28
2022-12-06T14:45:14.262Z,98439.91
2022-12-06T14:48:16.146Z,98440.81
2022-12-06T14:51:23.210Z,98438.19
2022-12-06T14:54:34.300Z,98437.38
2022-12-06T14:57:39.210Z,98435.63
2022-12-06T15:00:48.727Z,98438.28
2022-12-06T15:03:57.530Z,98441.78
2022-12-06T15:06:59.783Z,98439.19
2022-12-06T15:10:10.191Z,98439.16
2022-12-06T15:13:14.951Z,98441.78
2022-12-06T15:16:16.752Z,98450.53
2022-12-06T15:19:18.706Z,98450.56
2022-12-06T15:22:24.897Z,98450.59
2022-12-06T15:25:28.619Z,98464.72
2022-12-06T15:28:30.348Z,98459.59
2022-12-06T15:31:32.399Z,98458.72
2022-12-06T15:34:37.455Z,98456.13
2022-12-06T15:37:40.414Z,98462.25
2022-12-06T15:40:46.141Z,98463.13
2022-12-06T15:43:48.059Z,98456.94
2022-12-06T15:46:50.269Z,98454.25
2022-12-06T15:49:59.727Z,98451.56
2022-12-06T15:53:01.531Z,98447.19
2022-12-06T15:56:04.960Z,98455.91
2022-12-06T15:59:06.721Z,98450.66
2022-12-06T16:02:13.237Z,98444.50
2022-12-06T16:05:16.146Z,98442.75
2022-12-06T16:08:17.841Z,98438.34
2022-12-06T16:11:26.112Z,98433.97
2022-12-06T16:14:28.055Z,98440.97
2022-12-06T16:17:30.175Z,98438.31
2022-12-06T16:20:31.800Z,98432.16
2022-12-06T16:27:17.260Z,98440.03
2022-12-06T16:30:30.168Z,98442.66
2022-12-06T16:33:31.839Z,98441.78
2022-12-06T16:36:34.350Z,98436.53
2022-12-06T16:39:36.659Z,98439.19
2022-12-06T16:42:39.697Z,98437.41
2022-12-06T16:45:42.274Z,98445.28
2022-12-06T16:48:44.056Z,98442.66
2022-12-06T16:51:46.364Z,98440.03
2022-12-06T16:54:48.276Z,98437.41
2022-12-06T16:57:51.375Z,98437.41
2022-12-06T17:00:53.135Z,98435.66
2022-12-06T17:03:56.035Z,98423.38
2022-12-06T17:06:57.979Z,98417.25
2022-12-06T17:10:00.147Z,98421.63
2022-12-06T17:13:04.480Z,98430.38
2022-12-06T17:16:07.233Z,98437.44
2022-12-06T17:19:12.626Z,98431.31
2022-12-06T17:22:16.879Z,98440.09
2022-12-06T17:25:20.833Z,98434.81
2022-12-06T17:28:23.892Z,98426.97
2022-12-06T17:31:26.162Z,98426.03
2022-12-06T17:34:28.318Z,98423.38
2022-12-06T17:37:30.104Z,98418.16
2022-12-06T17:40:32.267Z,98426.13
2022-12-06T17:43:35.703Z,98411.31
2022-12-06T17:46:38.101Z,98422.75
2022-12-06T17:49:39.905Z,98425.41
2022-12-06T17:52:41.646Z,98422.78
2022-12-06T17:55:43.315Z,98419.28
2022-12-06T17:58:46.453Z,98420.16
2022-12-06T18:02:14.180Z,98409.69
2022-12-06T18:05:10.475Z,98416.66
2022-12-06T18:08:12.323Z,98421.06
2022-12-06T18:11:14.467Z,98424.53
2022-12-06T18:14:17.784Z,98421.06
2022-12-06T18:17:19.351Z,98423.69
2022-12-06T18:20:21.714Z,98426.31
2022-12-06T18:23:23.336Z,98425.53
2022-12-06T18:26:25.200Z,98425.44
2022-12-06T18:29:28.407Z,98423.69
2022-12-06T18:32:32.786Z,98418.41
2022-12-06T18:35:35.370Z,98420.97
2022-12-06T18:38:37.549Z,98416.56
2022-12-06T18:41:39.994Z,98424.44
2022-12-06T18:44:43.010Z,98418.28
2022-12-06T18:47:44.566Z,98437.56
2022-12-06T18:50:46.169Z,98438.41
2022-12-06T18:53:48.798Z,98430.56
2022-12-06T18:56:50.468Z,98431.41
2022-12-06T18:59:53.588Z,98427.94
2022-12-06T19:02:55.357Z,98430.53
2022-12-06T19:06:04.155Z,98428.81
2022-12-06T19:09:07.925Z,98414.72
2022-12-06T19:12:10.142Z,98413.84
2022-12-06T19:15:14.127Z,98403.31
2022-12-06T19:18:15.711Z,98410.28
2022-12-06T19:21:17.789Z,98403.28
2022-12-06T19:24:21.699Z,98410.25
2022-12-06T19:27:23.310Z,98398.84
2022-12-06T19:30:26.314Z,98395.34
2022-12-06T19:33:28.500Z,98397.97
2022-12-06T19:36:30.863Z,98393.59
2022-12-06T19:39:32.583Z,98395.31
2022-12-06T19:42:53.458Z,98385.69
2022-12-06T19:45:56.639Z,98392.72
2022-12-06T19:48:59.575Z,98380.41
2022-12-06T19:52:01.254Z,98381.28
2022-12-06T19:55:03.132Z,98390.88
2022-12-06T19:58:05.118Z,98385.63
2022-12-06T20:01:09.185Z,98386.44
2022-12-06T20:04:14.028Z,98388.19
2022-12-06T20:07:15.686Z,98386.38
2022-12-06T20:10:17.393Z,98389.03
2022-12-06T20:13:18.993Z,98389.88
2022-12-06T20:16:22.055Z,98387.22
2022-12-06T20:19:24.292Z,98378.44
2022-12-06T20:22:25.912Z,98384.56
2022-12-06T20:25:27.708Z,98383.72
2022-12-06T20:28:29.292Z,98376.72
2022-12-06T20:31:32.913Z,98372.28
2022-12-06T20:34:35.073Z,98381.88
2022-12-06T20:37:37.132Z,98366.09
2022-12-06T20:40:38.810Z,98373.06
2022-12-06T20:43:40.968Z,98370.38
2022-12-06T20:46:44.539Z,98359.88
2022-12-06T20:49:46.185Z,98345.84
2022-12-06T20:52:48.599Z,98352.00
2022-12-06T20:55:50.300Z,98355.50
2022-12-06T20:58:53.290Z,98357.25
2022-12-06T21:01:56.649Z,98351.97
2022-12-06T21:04:58.374Z,98351.09
2022-12-06T21:08:00.128Z,98351.09
2022-12-06T21:14:23.744Z,98357.22
2022-12-06T21:17:26.707Z,98348.44
2022-12-06T21:20:28.355Z,98346.75
2022-12-06T21:23:30.099Z,98344.13
2022-12-06T21:26:31.886Z,98332.72
2022-12-06T21:29:33.733Z,98335.31
2022-12-06T21:32:36.714Z,98337.91
2022-12-06T21:35:39.125Z,98343.16
2022-12-06T21:38:40.707Z,98348.38
2022-12-06T21:41:42.439Z,98337.00
2022-12-06T21:44:44.023Z,98335.19
2022-12-06T21:47:47.160Z,98323.81
2022-12-06T21:50:49.017Z,98325.69
2022-12-06T21:53:50.799Z,98324.00
2022-12-06T21:56:52.539Z,98319.72
2022-12-06T21:59:54.389Z,98322.44
2022-12-06T22:02:57.912Z,98318.94
2022-12-06T22:06:02.910Z,98326.03
2022-12-06T22:09:06.848Z,98328.66
2022-12-06T22:12:08.809Z,98324.31
2022-12-06T22:15:10.502Z,98322.50
2022-12-06T22:18:13.517Z,98318.16
2022-12-06T22:21:16.687Z,98322.53
2022-12-06T22:24:18.459Z,98320.84
2022-12-06T22:27:20.020Z,98315.56
2022-12-06T22:30:21.595Z,98315.56
2022-12-06T22:33:24.570Z,98313.81
2022-12-06T22:36:27.106Z,98307.69
2022-12-06T22:39:28.672Z,98308.53
2022-12-06T22:42:31.237Z,98303.25
2022-12-06T22:45:35.556Z,98297.09
2022-12-06T22:48:38.941Z,98297.06
2022-12-06T22:51:40.787Z,98295.28
2022-12-06T22:54:42.697Z,98301.41
2022-12-06T22:57:44.461Z,98296.03
2022-12-06T23:00:46.051Z,98303.00
2022-12-06T23:03:51.679Z,98302.13
2022-12-06T23:06:53.333Z,98289.88
2022-12-06T23:09:55.000Z,98287.28
2022-12-06T23:12:56.632Z,98284.59
2022-12-06T23:15:59.270Z,98281.91
2022-12-06T23:19:03.242Z,98279.25
2022-12-06T23:22:04.861Z,98268.66
2022-12-06T23:25:06.958Z,98266.81
2022-12-06T23:28:08.588Z,98263.22
2022-12-06T23:31:13.104Z,98257.94
2022-12-06T23:34:17.785Z,98263.09
2022-12-06T23:37:19.446Z,98254.31
2022-12-06T23:40:21.185Z,98255.19
2022-12-06T23:43:22.926Z,98249.88
2022-12-06T23:46:25.484Z,98256.88
2022-12-06T23:49:28.429Z,98256.88
2022-12-06T23:52:30.184Z,98253.38
2022-12-06T23:55:35.421Z,98237.59
2022-12-06T23:58:37.536Z,98234.13
